Pagina principale
METAR-TAF:

METAR-TAF

Aeroporti :

Altenstadt, Germania

latitudine: 47-50N, longitudine: 010-52E, altezza: 739 m

Osservazione

Il bollettino è stato emesso 22 minuti fa, alle 10:20 UTC
Vento 2 kt da ovest
Temperature 21°C
Umidità 30%
Pressione 1016 hPa
Visibilità 10 km o più
Poco nuvoloso ad un'altezza di 5000 ft

METAR: ETHA 151020Z 26002KT 9999 FEW050 21/03 Q1016 BLU+BLU+

Ora: 12:42 (10:42 UTC)

Previsione

Il bollettino è stato emesso 30 minuti fa, alle 10:12 UTC
Previsione valida dal 15 alle 11 UTC al 15 alle 20 UTC
Vento 7 kt da nord-est
Visibilità 10 km o più
Poco nuvoloso ad un'altezza di 5000 ft
Nubi sparse ad un'altezza di 30000 ft

TAF: ETHA 151012Z 1511/1520 05007KT 9999 NSW FEW050 SCT300

Osservazioni e previsioni meteorologiche di più di 4000 aeroporti (messaggi METAR e TAF).

Le stazioni disponibili sono rappresentate dai dischi gialli e rossi sulla carta.

Puntare il mouse per vedere il nome della stazione.

Clicca sopra per visualizzare le osservazioni e previsioni meteorologiche.

Per cambiare la mappa : fare clic sui pulsanti verdi con una croce nera per ingrandire, il pulsante verde con un trattino per diminuire, o sulla freccia verde per le mappe adiacenti.


METAR-TAF: